Observations

81.5 °F / 27.5 °C
ENE at 21 MPH
76%
73.6°F / 23.1 °C
29.86" (1011 mb)
10 mile(s)
partly cloudy
2021.01.20 1240 UTC

Observations

Surface


Raw METARs

2021/01/20 12:40
PKWA 201240Z AUTO 07018KT 10SM SCT026 28/23 A2986 RMK AO2 T02750231

Translated METAR

Kwajalein, Bucholz AAF, Kwajalein KMR ATOL Airport, Marshall Islands (PKWA) 08-43N 167-44E 2M
Jan 20, 2021 - 07:40 AM EST / 2021.01.20 1240 UTC
Wind: from the ENE (070 degrees) at 21 MPH (18 KT):0
Visibility: 10 mile(s):0
Sky conditions: partly cloudy
Temperature: 81.5 F (27.5 C)
Dew Point: 73.6 F (23.1 C)
Relative Humidity: 76%
Pressure (altimeter): 29.86 in. Hg (1011 hPa)
ob: PKWA 201240Z AUTO 07018KT 10SM SCT026 28/23 A2986 RMK AO2 T02750231
cycle: 12



Upper Air


Latest Skew-T

Skew T Diagram

Latest Data File